createdAt,value
2018-11-23T00:00:12.782Z,20.13
2018-11-23T00:02:43.284Z,19.73
2018-11-23T00:05:11.756Z,20.20
2018-11-23T00:07:44.467Z,20.87
2018-11-23T00:10:14.481Z,20.50
2018-11-23T00:12:43.117Z,20.53
2018-11-23T00:15:13.501Z,18.03
2018-11-23T00:17:42.022Z,20.27
2018-11-23T00:20:13.670Z,20.50
2018-11-23T00:22:42.249Z,21.60
2018-11-23T00:25:12.978Z,19.80
2018-11-23T00:27:42.779Z,21.67
2018-11-23T00:30:14.264Z,20.63
2018-11-23T00:32:42.795Z,18.53
2018-11-23T00:35:13.862Z,18.90
2018-11-23T00:37:42.439Z,19.93
2018-11-23T00:40:13.258Z,20.10
2018-11-23T00:42:42.288Z,21.43
2018-11-23T00:45:12.696Z,19.50
2018-11-23T00:47:42.185Z,22.10
2018-11-23T00:50:12.825Z,20.60
2018-11-23T00:52:42.197Z,19.70
2018-11-23T00:55:12.258Z,20.17
2018-11-23T00:57:40.814Z,19.87
2018-11-23T01:00:19.578Z,20.20
2018-11-23T01:02:48.052Z,19.10
2018-11-23T01:05:17.880Z,19.17
2018-11-23T01:07:46.854Z,21.03
2018-11-23T01:10:17.102Z,19.90
2018-11-23T01:12:46.602Z,20.97
2018-11-23T01:15:15.115Z,20.00
2018-11-23T01:17:43.627Z,20.60
2018-11-23T01:20:15.404Z,20.33
2018-11-23T01:22:44.124Z,19.70
2018-11-23T01:25:13.977Z,19.97
2018-11-23T01:27:43.270Z,20.40
2018-11-23T01:30:16.307Z,19.87
2018-11-23T01:32:44.877Z,22.57
2018-11-23T01:35:13.689Z,21.37
2018-11-23T01:37:43.398Z,21.50
2018-11-23T01:40:14.437Z,21.67
2018-11-23T01:42:43.670Z,20.63
2018-11-23T01:45:12.824Z,21.30
2018-11-23T01:47:41.343Z,20.00
2018-11-23T01:50:13.989Z,21.13
2018-11-23T01:52:42.939Z,19.90
2018-11-23T01:55:12.222Z,19.90
2018-11-23T01:57:41.353Z,19.57
2018-11-23T02:00:13.164Z,21.20
2018-11-23T02:02:41.662Z,21.00
2018-11-23T02:05:10.595Z,19.93
2018-11-23T02:07:39.582Z,19.93
2018-11-23T02:10:10.360Z,20.03
2018-11-23T02:12:38.928Z,20.37
2018-11-23T02:15:12.390Z,20.77
2018-11-23T02:17:40.834Z,19.80
2018-11-23T02:20:10.847Z,20.80
2018-11-23T02:22:39.347Z,20.63
2018-11-23T02:25:07.916Z,19.77
2018-11-23T02:27:36.378Z,20.50
2018-11-23T02:30:07.978Z,20.60
2018-11-23T02:32:36.455Z,17.90
2018-11-23T02:35:05.012Z,21.57
2018-11-23T02:37:33.407Z,19.90
2018-11-23T02:40:01.810Z,19.43
2018-11-23T02:42:30.270Z,20.73
2018-11-23T02:44:59.286Z,20.90
2018-11-23T02:47:27.842Z,19.10
2018-11-23T02:49:56.241Z,20.60
2018-11-23T02:52:24.675Z,19.57
2018-11-23T02:54:53.140Z,21.07
2018-11-23T02:57:21.527Z,20.93
2018-11-23T02:59:50.024Z,19.00
2018-11-23T03:02:18.435Z,20.60
2018-11-23T03:04:46.877Z,18.50
2018-11-23T03:07:15.985Z,19.03
2018-11-23T03:09:44.417Z,16.93
2018-11-23T03:12:12.787Z,18.93
2018-11-23T03:14:41.197Z,20.40
2018-11-23T03:17:09.598Z,19.00
2018-11-23T03:19:38.056Z,20.33
2018-11-23T03:22:06.497Z,20.87
2018-11-23T03:24:34.945Z,18.60
2018-11-23T03:27:03.424Z,19.50
2018-11-23T03:29:31.834Z,16.83
2018-11-23T03:32:00.305Z,18.73
2018-11-23T03:34:29.610Z,18.23
2018-11-23T03:36:58.062Z,19.53
2018-11-23T03:39:26.471Z,18.40
2018-11-23T03:41:55.007Z,18.07
2018-11-23T03:44:23.426Z,17.73
2018-11-23T03:46:52.607Z,20.40
2018-11-23T03:49:21.018Z,19.47
2018-11-23T03:51:49.525Z,21.97
2018-11-23T03:54:18.128Z,18.50
2018-11-23T03:56:46.605Z,18.87
2018-11-23T03:59:15.128Z,18.90
2018-11-23T04:01:44.459Z,19.77
2018-11-23T04:04:12.906Z,19.63
2018-11-23T04:06:41.353Z,18.53
2018-11-23T04:09:10.558Z,17.20
2018-11-23T04:11:38.975Z,17.87
2018-11-23T04:14:07.399Z,18.13
2018-11-23T04:16:36.881Z,17.87
2018-11-23T04:19:05.396Z,15.90
2018-11-23T04:21:33.830Z,19.43
2018-11-23T04:24:02.277Z,19.93
2018-11-23T04:26:30.909Z,18.17
2018-11-23T04:28:59.329Z,19.80
2018-11-23T04:31:27.875Z,19.87
2018-11-23T04:33:56.292Z,18.90
2018-11-23T04:36:24.698Z,16.80
2018-11-23T04:38:53.151Z,18.30
2018-11-23T04:41:21.672Z,18.50
2018-11-23T04:43:50.537Z,19.53
2018-11-23T04:46:18.989Z,20.20
2018-11-23T04:48:47.526Z,21.47
2018-11-23T04:51:15.901Z,19.80
2018-11-23T04:53:44.303Z,19.27
2018-11-23T04:56:12.749Z,17.43
2018-11-23T04:58:41.738Z,17.83
2018-11-23T05:01:10.216Z,18.73
2018-11-23T05:03:38.648Z,19.50
2018-11-23T05:06:07.177Z,19.53
2018-11-23T05:08:35.708Z,20.57
2018-11-23T05:11:04.188Z,20.00
2018-11-23T05:13:32.594Z,19.87
2018-11-23T05:16:01.147Z,21.40
2018-11-23T05:18:29.580Z,21.07
2018-11-23T05:20:58.468Z,20.77
2018-11-23T05:23:26.949Z,23.47
2018-11-23T05:25:55.393Z,22.60
2018-11-23T05:28:23.920Z,22.87
2018-11-23T05:30:52.348Z,22.67
2018-11-23T05:33:20.745Z,23.60
2018-11-23T05:35:49.156Z,24.50
2018-11-23T05:38:17.546Z,21.77
2018-11-23T05:40:45.970Z,23.80
2018-11-23T05:43:14.356Z,21.40
2018-11-23T05:45:42.826Z,22.80
2018-11-23T05:48:11.300Z,21.73
2018-11-23T05:50:39.801Z,22.67
2018-11-23T05:53:08.215Z,21.93
2018-11-23T05:55:36.665Z,22.27
2018-11-23T05:58:05.137Z,24.13
2018-11-23T06:00:34.040Z,23.70
2018-11-23T06:03:02.725Z,23.67
2018-11-23T06:05:31.216Z,22.90
2018-11-23T06:07:59.699Z,23.57
2018-11-23T06:10:28.110Z,22.50
2018-11-23T06:12:56.517Z,22.83
2018-11-23T06:15:25.565Z,23.90
2018-11-23T06:17:54.015Z,23.53
2018-11-23T06:20:24.728Z,22.97
2018-11-23T06:22:53.778Z,24.17
2018-11-23T06:25:25.004Z,24.63
2018-11-23T06:27:53.855Z,24.37
2018-11-23T06:30:22.318Z,23.50
2018-11-23T06:33:01.819Z,23.30
2018-11-23T06:35:30.434Z,22.67
2018-11-23T06:37:58.853Z,23.53
2018-11-23T06:40:27.324Z,23.93
2018-11-23T06:42:55.741Z,22.93
2018-11-23T06:45:24.560Z,24.00
2018-11-23T06:47:54.134Z,24.70
2018-11-23T06:50:22.656Z,23.83
2018-11-23T06:52:51.248Z,23.87
2018-11-23T06:55:19.934Z,22.83
2018-11-23T06:57:48.429Z,24.30
2018-11-23T07:00:18.136Z,24.67
2018-11-23T07:02:46.811Z,24.43
2018-11-23T07:05:15.615Z,24.20
2018-11-23T07:07:44.446Z,24.67
2018-11-23T07:10:13.165Z,23.57
2018-11-23T07:12:45.118Z,23.93
2018-11-23T07:15:13.718Z,24.37
2018-11-23T07:17:42.709Z,26.37
2018-11-23T07:20:13.463Z,22.73
2018-11-23T07:22:42.476Z,23.73
2018-11-23T07:25:12.193Z,26.13
2018-11-23T07:27:41.199Z,24.27
2018-11-23T07:30:14.187Z,23.47
2018-11-23T07:32:42.743Z,24.47
2018-11-23T07:35:11.751Z,24.87
2018-11-23T07:37:41.381Z,24.23
2018-11-23T07:40:26.966Z,23.80
2018-11-23T07:42:56.081Z,22.83
2018-11-23T07:45:26.157Z,26.43
2018-11-23T07:47:54.639Z,26.57
2018-11-23T07:50:23.206Z,26.00
2018-11-23T07:52:51.637Z,24.93
2018-11-23T07:55:20.945Z,23.30
2018-11-23T07:57:51.197Z,23.40
2018-11-23T08:00:21.089Z,22.10
2018-11-23T08:02:49.766Z,23.93
2018-11-23T08:05:19.038Z,22.80
2018-11-23T08:07:49.190Z,25.10
2018-11-23T08:10:16.805Z,31.40
2018-11-23T08:12:49.544Z,29.80
2018-11-23T08:15:23.230Z,27.77
2018-11-23T08:17:51.759Z,25.73
2018-11-23T08:20:21.558Z,23.80
2018-11-23T08:22:50.081Z,22.90
2018-11-23T08:25:19.971Z,23.67
2018-11-23T08:27:49.436Z,22.03
2018-11-23T08:30:22.724Z,23.60
2018-11-23T08:32:51.201Z,24.50
2018-11-23T08:35:20.907Z,23.33
2018-11-23T08:37:49.378Z,25.53
2018-11-23T08:40:21.118Z,24.97
2018-11-23T08:42:50.619Z,25.27
2018-11-23T08:45:21.156Z,24.60
2018-11-23T08:47:49.637Z,26.07
2018-11-23T08:50:23.653Z,28.50
2018-11-23T08:52:52.218Z,28.40
2018-11-23T08:55:21.142Z,25.50
2018-11-23T08:57:49.699Z,26.70
2018-11-23T09:00:26.727Z,25.90
2018-11-23T09:03:00.737Z,24.77
2018-11-23T09:05:29.177Z,24.63
2018-11-23T09:07:58.223Z,22.50
2018-11-23T09:10:28.377Z,26.10
2018-11-23T09:12:58.554Z,25.90
2018-11-23T09:15:27.091Z,24.33
2018-11-23T09:17:55.597Z,24.53
2018-11-23T09:20:24.147Z,23.57
2018-11-23T09:22:53.292Z,23.00
2018-11-23T09:25:23.115Z,23.80
2018-11-23T09:27:52.014Z,24.17
2018-11-23T09:30:23.750Z,22.60
2018-11-23T09:32:54.791Z,25.10
2018-11-23T09:35:24.142Z,22.77
2018-11-23T09:37:52.785Z,23.90
2018-11-23T09:40:23.805Z,24.03
2018-11-23T09:42:52.901Z,25.60
2018-11-23T09:45:27.825Z,23.33
2018-11-23T09:47:57.769Z,24.23
2018-11-23T09:50:26.908Z,24.13
2018-11-23T09:52:56.424Z,23.37
2018-11-23T09:55:25.505Z,20.57
2018-11-23T09:57:54.125Z,23.20
2018-11-23T10:00:24.747Z,23.47
2018-11-23T10:02:54.447Z,25.17
2018-11-23T10:05:23.698Z,21.90
2018-11-23T10:07:53.922Z,23.17
2018-11-23T10:10:23.066Z,23.70
2018-11-23T10:12:51.555Z,23.23
2018-11-23T10:15:20.646Z,23.10
2018-11-23T10:17:49.231Z,22.10
2018-11-23T10:20:19.480Z,22.80
2018-11-23T10:22:48.338Z,21.97
2018-11-23T10:25:19.488Z,21.80
2018-11-23T10:27:48.357Z,25.50
2018-11-23T10:30:21.595Z,21.77
2018-11-23T10:32:51.386Z,22.60
2018-11-23T10:35:19.860Z,21.17
2018-11-23T10:37:49.980Z,22.40
2018-11-23T10:40:19.918Z,19.90
2018-11-23T10:42:49.898Z,22.00
2018-11-23T10:45:20.584Z,20.90
2018-11-23T10:47:49.818Z,26.90
2018-11-23T10:50:20.514Z,20.47
2018-11-23T10:52:49.070Z,21.10
2018-11-23T10:55:21.078Z,20.87
2018-11-23T10:57:49.693Z,20.70
2018-11-23T11:00:23.981Z,20.47
2018-11-23T11:02:59.425Z,20.50
2018-11-23T11:05:41.918Z,25.00
2018-11-23T11:08:10.579Z,20.93
2018-11-23T11:10:39.062Z,19.67
2018-11-23T11:13:07.729Z,19.47
2018-11-23T11:15:37.236Z,18.40
2018-11-23T11:18:06.678Z,19.77
2018-11-23T11:20:35.167Z,17.97
2018-11-23T11:23:03.662Z,21.30
2018-11-23T11:25:32.094Z,19.20
2018-11-23T11:28:00.614Z,18.17
2018-11-23T11:30:29.067Z,19.20
2018-11-23T11:32:57.583Z,20.23
2018-11-23T11:35:26.033Z,19.40
2018-11-23T11:37:54.532Z,19.47
2018-11-23T11:40:22.961Z,17.20
2018-11-23T11:42:51.583Z,17.40
2018-11-23T11:45:20.112Z,16.97
2018-11-23T11:47:49.045Z,17.53
2018-11-23T11:50:17.680Z,18.63
2018-11-23T11:52:47.585Z,18.63
2018-11-23T11:55:17.363Z,29.10
2018-11-23T11:57:46.441Z,24.60
2018-11-23T12:00:23.525Z,21.57
2018-11-23T12:02:53.034Z,18.60
2018-11-23T12:05:21.496Z,18.13
2018-11-23T12:07:50.006Z,17.07
2018-11-23T12:10:22.029Z,16.70
2018-11-23T12:12:50.523Z,16.73
2018-11-23T12:15:19.871Z,15.57
2018-11-23T12:17:48.369Z,16.23
2018-11-23T12:20:23.289Z,15.77
2018-11-23T12:22:52.055Z,16.40
2018-11-23T12:25:21.036Z,17.60
2018-11-23T12:27:49.602Z,18.00
2018-11-23T12:30:19.374Z,15.60
2018-11-23T12:32:49.061Z,16.33
2018-11-23T12:35:18.675Z,16.37
2018-11-23T12:37:47.187Z,15.27
2018-11-23T12:40:16.977Z,14.50
2018-11-23T12:42:46.014Z,16.33
2018-11-23T12:45:16.398Z,15.37
2018-11-23T12:47:44.850Z,17.33
2018-11-23T12:50:15.326Z,16.27
2018-11-23T12:52:43.833Z,15.80
2018-11-23T12:55:13.343Z,15.70
2018-11-23T12:57:42.825Z,16.70
2018-11-23T13:00:20.050Z,15.00
2018-11-23T13:02:50.231Z,14.07
2018-11-23T13:05:19.229Z,15.10
2018-11-23T13:07:47.699Z,13.20
2018-11-23T13:10:16.249Z,15.07
2018-11-23T13:12:50.681Z,15.43
2018-11-23T13:15:14.119Z,14.53
2018-11-23T13:17:43.657Z,14.60
2018-11-23T13:20:13.627Z,15.30
2018-11-23T13:22:42.281Z,12.97
2018-11-23T13:25:12.735Z,13.17
2018-11-23T13:27:41.654Z,13.00
2018-11-23T13:30:13.764Z,13.20
2018-11-23T13:32:42.890Z,15.30
2018-11-23T13:35:13.009Z,13.13
2018-11-23T13:37:42.124Z,13.80
2018-11-23T13:40:13.267Z,13.97
2018-11-23T13:42:41.896Z,14.43
2018-11-23T13:45:12.460Z,13.13
2018-11-23T13:47:41.143Z,12.80
2018-11-23T13:50:11.986Z,12.43
2018-11-23T13:52:41.659Z,14.10
2018-11-23T13:55:10.201Z,13.20
2018-11-23T13:57:38.699Z,13.63
2018-11-23T14:00:13.737Z,12.67
2018-11-23T14:02:42.223Z,14.20
2018-11-23T14:05:12.838Z,14.00
2018-11-23T14:07:41.811Z,13.20
2018-11-23T14:10:12.633Z,12.20
2018-11-23T14:12:41.417Z,14.10
2018-11-23T14:15:13.405Z,12.27
2018-11-23T14:17:42.682Z,12.50
2018-11-23T14:20:12.596Z,12.90
2018-11-23T14:22:41.176Z,13.47
2018-11-23T14:25:11.930Z,12.87
2018-11-23T14:27:41.197Z,11.70
2018-11-23T14:30:12.689Z,12.60
2018-11-23T14:32:41.355Z,11.40
2018-11-23T14:35:12.075Z,13.03
2018-11-23T14:37:41.916Z,14.13
2018-11-23T14:40:11.598Z,14.43
2018-11-23T14:42:41.321Z,12.87
2018-11-23T14:45:13.462Z,13.67
2018-11-23T14:47:42.274Z,11.77
2018-11-23T14:50:14.589Z,11.40
2018-11-23T14:52:44.211Z,12.43
2018-11-23T14:55:12.829Z,11.90
2018-11-23T14:57:42.654Z,12.50
2018-11-23T15:00:21.903Z,11.70
2018-11-23T15:02:51.683Z,10.40
2018-11-23T15:05:20.367Z,11.47
2018-11-23T15:07:48.896Z,14.00
2018-11-23T15:10:18.775Z,12.67
2018-11-23T15:12:48.613Z,12.87
2018-11-23T15:15:18.524Z,11.40
2018-11-23T15:17:48.034Z,11.97
2018-11-23T15:20:19.564Z,11.30
2018-11-23T15:22:50.366Z,12.13
2018-11-23T15:25:18.884Z,11.20
2018-11-23T15:27:48.329Z,11.50
2018-11-23T15:30:19.486Z,11.70
2018-11-23T15:32:48.108Z,11.00
2018-11-23T15:35:16.975Z,11.07
2018-11-23T15:37:45.521Z,11.73
2018-11-23T15:40:19.452Z,10.40
2018-11-23T15:42:48.691Z,11.10
2018-11-23T15:45:19.761Z,10.60
2018-11-23T15:47:48.290Z,10.53
2018-11-23T15:50:20.030Z,11.37
2018-11-23T15:52:48.702Z,11.03
2018-11-23T15:55:19.803Z,12.70
2018-11-23T15:57:49.273Z,10.37
2018-11-23T16:00:21.495Z,9.90
2018-11-23T16:02:50.434Z,9.87
2018-11-23T16:05:18.995Z,10.47
2018-11-23T16:07:47.874Z,10.30
2018-11-23T16:10:23.683Z,10.60
2018-11-23T16:12:53.452Z,10.90
2018-11-23T16:15:22.631Z,10.70
2018-11-23T16:17:51.650Z,11.00
2018-11-23T16:20:22.036Z,11.17
2018-11-23T16:22:52.918Z,10.07
2018-11-23T16:25:21.398Z,10.53
2018-11-23T16:27:51.562Z,10.10
2018-11-23T16:30:22.967Z,9.03
2018-11-23T16:32:52.455Z,9.63
2018-11-23T16:35:25.146Z,9.77
2018-11-23T16:37:54.648Z,11.53
2018-11-23T16:40:28.454Z,10.23
2018-11-23T16:42:57.630Z,9.83
2018-11-23T16:45:29.904Z,9.80
2018-11-23T16:47:59.401Z,9.97
2018-11-23T16:50:28.309Z,10.73
2018-11-23T16:52:57.206Z,10.20
2018-11-23T16:55:25.874Z,10.33
2018-11-23T16:57:55.994Z,9.20
2018-11-23T17:00:29.085Z,9.33
2018-11-23T17:02:58.919Z,9.60
2018-11-23T17:05:28.994Z,9.70
2018-11-23T17:07:57.429Z,9.80
2018-11-23T17:10:26.576Z,10.50
2018-11-23T17:12:55.046Z,9.80
2018-11-23T17:15:25.001Z,10.53
2018-11-23T17:17:53.552Z,10.23
2018-11-23T17:20:24.188Z,9.60
2018-11-23T17:22:53.811Z,12.30
2018-11-23T17:25:23.244Z,11.27
2018-11-23T17:27:53.249Z,9.70
2018-11-23T17:30:23.772Z,12.40
2018-11-23T17:32:52.264Z,10.20
2018-11-23T17:35:21.024Z,9.70
2018-11-23T17:37:49.596Z,11.70
2018-11-23T17:40:19.495Z,11.30
2018-11-23T17:42:48.008Z,10.70
2018-11-23T17:45:18.221Z,11.53
2018-11-23T17:47:46.758Z,10.97
2018-11-23T17:50:18.957Z,9.50
2018-11-23T17:52:47.969Z,10.37
2018-11-23T17:55:16.445Z,9.20
2018-11-23T17:57:45.637Z,10.37
2018-11-23T18:00:22.984Z,9.47
2018-11-23T18:02:52.327Z,9.67
2018-11-23T18:05:21.817Z,9.43
2018-11-23T18:07:50.549Z,10.10
2018-11-23T18:10:21.254Z,9.27
2018-11-23T18:12:50.175Z,8.80
2018-11-23T18:15:21.133Z,11.07
2018-11-23T18:17:50.420Z,10.43
2018-11-23T18:20:20.040Z,9.87
2018-11-23T18:22:49.360Z,11.40
2018-11-23T18:25:20.425Z,11.93
2018-11-23T18:27:49.340Z,11.37
2018-11-23T18:30:17.834Z,10.93
2018-11-23T18:32:46.236Z,10.73
2018-11-23T18:35:15.245Z,11.70
2018-11-23T18:37:43.720Z,10.60
2018-11-23T18:40:13.619Z,11.00
2018-11-23T18:42:42.689Z,10.90
2018-11-23T18:45:12.864Z,11.20
2018-11-23T18:47:42.759Z,12.07
2018-11-23T18:50:15.482Z,11.53
2018-11-23T18:52:44.080Z,11.10
2018-11-23T18:55:18.131Z,10.37
2018-11-23T18:57:43.117Z,9.20
2018-11-23T19:00:16.346Z,11.10
2018-11-23T19:02:46.775Z,11.00
2018-11-23T19:05:20.616Z,11.00
2018-11-23T19:07:49.144Z,10.70
2018-11-23T19:10:17.686Z,10.63
2018-11-23T19:12:46.144Z,11.47
2018-11-23T19:15:17.534Z,11.70
2018-11-23T19:17:45.315Z,11.13
2018-11-23T19:20:17.738Z,11.87
2018-11-23T19:22:47.401Z,12.40
2018-11-23T19:25:16.055Z,11.43
2018-11-23T19:27:45.733Z,9.83
2018-11-23T19:30:15.623Z,11.97
2018-11-23T19:32:44.189Z,11.93
2018-11-23T19:35:12.741Z,10.63
2018-11-23T19:37:41.306Z,13.27
2018-11-23T19:40:12.574Z,13.60
2018-11-23T19:42:41.060Z,13.00
2018-11-23T19:45:11.158Z,14.47
2018-11-23T19:47:39.646Z,15.10
2018-11-23T19:50:11.654Z,22.70
2018-11-23T19:52:40.319Z,39.43
2018-11-23T19:55:09.385Z,61.70
2018-11-23T19:57:37.867Z,48.43
2018-11-23T20:00:17.713Z,35.47
2018-11-23T20:02:46.613Z,26.87
2018-11-23T20:05:15.111Z,21.20
2018-11-23T20:07:43.753Z,19.70
2018-11-23T20:10:13.923Z,22.50
2018-11-23T20:12:42.506Z,17.43
2018-11-23T20:15:13.675Z,12.60
2018-11-23T20:17:42.175Z,12.80
2018-11-23T20:20:12.761Z,12.10
2018-11-23T20:22:41.215Z,10.37
2018-11-23T20:25:12.223Z,9.53
2018-11-23T20:27:41.290Z,10.60
2018-11-23T20:30:12.958Z,10.50
2018-11-23T20:32:41.499Z,11.57
2018-11-23T20:35:13.393Z,25.03
2018-11-23T20:37:42.429Z,11.97
2018-11-23T20:40:18.072Z,12.33
2018-11-23T20:42:47.127Z,12.90
2018-11-23T20:45:15.678Z,12.53
2018-11-23T20:47:45.092Z,11.50
2018-11-23T20:50:14.875Z,12.67
2018-11-23T20:52:43.425Z,14.50
2018-11-23T20:55:16.004Z,13.40
2018-11-23T20:57:44.482Z,15.00
2018-11-23T21:00:14.992Z,13.07
2018-11-23T21:02:43.744Z,11.40
2018-11-23T21:05:13.330Z,12.40
2018-11-23T21:07:41.884Z,11.13
2018-11-23T21:10:20.120Z,11.10
2018-11-23T21:12:42.114Z,12.67
2018-11-23T21:15:23.727Z,11.93
2018-11-23T21:17:53.325Z,11.97
2018-11-23T21:20:21.804Z,11.47
2018-11-23T21:22:50.245Z,11.53
2018-11-23T21:25:18.793Z,11.73
2018-11-23T21:27:47.268Z,12.10
2018-11-23T21:30:18.810Z,11.40
2018-11-23T21:32:47.330Z,11.50
2018-11-23T21:35:15.849Z,13.03
2018-11-23T21:37:44.342Z,15.87
2018-11-23T21:40:13.961Z,16.50
2018-11-23T21:42:42.417Z,20.57
2018-11-23T21:45:15.916Z,17.10
2018-11-23T21:47:44.417Z,18.30
2018-11-23T21:50:15.035Z,18.43
2018-11-23T21:52:43.526Z,21.07
2018-11-23T21:55:20.499Z,18.07
2018-11-23T21:57:49.041Z,18.57
2018-11-23T22:00:17.533Z,16.83
2018-11-23T22:02:46.046Z,14.70
2018-11-23T22:05:14.568Z,14.30
2018-11-23T22:07:43.064Z,13.60
2018-11-23T22:10:15.335Z,13.13
2018-11-23T22:12:44.250Z,14.03
2018-11-23T22:15:16.221Z,15.67
2018-11-23T22:17:45.376Z,15.20
2018-11-23T22:20:15.116Z,12.60
2018-11-23T22:22:43.603Z,13.70
2018-11-23T22:25:13.447Z,11.80
2018-11-23T22:27:42.059Z,11.70
2018-11-23T22:30:13.840Z,12.60
2018-11-23T22:32:42.356Z,13.03
2018-11-23T22:35:11.910Z,12.20
2018-11-23T22:37:40.395Z,12.00
2018-11-23T22:40:11.335Z,11.40
2018-11-23T22:42:40.048Z,12.67
2018-11-23T22:45:10.056Z,11.30
2018-11-23T22:47:38.965Z,11.13
2018-11-23T22:50:09.732Z,12.60
2018-11-23T22:52:39.176Z,13.97
2018-11-23T22:55:09.501Z,12.30
2018-11-23T22:57:38.092Z,12.90
2018-11-23T23:00:10.650Z,12.30
2018-11-23T23:02:39.189Z,12.07
2018-11-23T23:05:08.046Z,11.60
2018-11-23T23:07:37.450Z,12.87
2018-11-23T23:10:06.479Z,13.97
2018-11-23T23:12:35.145Z,12.90
2018-11-23T23:15:04.206Z,14.33
2018-11-23T23:17:32.625Z,13.40
2018-11-23T23:20:01.126Z,11.80
2018-11-23T23:22:29.570Z,12.80
2018-11-23T23:24:58.818Z,12.57
2018-11-23T23:27:27.272Z,16.47
2018-11-23T23:29:55.728Z,13.47
2018-11-23T23:32:24.186Z,14.97
2018-11-23T23:34:52.610Z,13.30
2018-11-23T23:37:21.084Z,11.33
2018-11-23T23:39:49.508Z,14.63
2018-11-23T23:42:17.917Z,13.67
2018-11-23T23:44:46.347Z,13.80
2018-11-23T23:47:15.049Z,12.40
2018-11-23T23:49:43.684Z,12.20
2018-11-23T23:52:19.450Z,12.67
2018-11-23T23:54:47.871Z,13.67
2018-11-23T23:57:16.332Z,13.50
2018-11-23T23:59:44.788Z,13.50
